Time;durP1;ratioP1;P1;durP2;ratioP2;P2;SDS_P1;SDS_P2;PMS_P1;PMS_P2;Temp;Humidity;BMP_temperature;BMP_pressure;BME280_temperature;BME280_humidity;BME280_pressure;Samples;Min_cycle;Max_cycle;Signal;HPM_P1;HPM_P2
2022/03/29 00:02:00;;;;;;;43.08;19.58;;;;;;;;;;5040087;28;20021;-68
2022/03/29 00:04:26;;;;;;;37.17;18.02;;;;;;;;;;5036842;28;20028;-68
2022/03/29 00:06:51;;;;;;;43.90;19.50;;;;;;;;;;5038851;28;20079;-68
2022/03/29 00:09:17;;;;;;;50.75;18.40;;;;;;;;;;5037144;28;20017;-68
2022/03/29 00:11:42;;;;;;;47.03;18.08;;;;;;;;;;5039913;28;20394;-68
2022/03/29 00:14:08;;;;;;;49.35;19.73;;;;;;;;;;5037972;28;20496;-68
2022/03/29 00:16:34;;;;;;;44.78;19.17;;;;;;;;;;5032735;28;20022;-68
2022/03/29 00:18:59;;;;;;;39.75;17.05;;;;;;;;;;5035635;28;20032;-69
2022/03/29 00:21:25;;;;;;;52.55;18.80;;;;;;;;;;5043045;28;20095;-68
2022/03/29 00:23:50;;;;;;;49.03;18.75;;;;;;;;;;5040350;28;20036;-69
2022/03/29 00:26:16;;;;;;;42.75;18.38;;;;;;;;;;5038408;28;20013;-68
2022/03/29 00:28:42;;;;;;;46.58;18.27;;;;;;;;;;5036815;28;20057;-68
2022/03/29 00:31:07;;;;;;;47.05;17.95;;;;;;;;;;5042073;28;20097;-68
2022/03/29 00:33:32;;;;;;;38.87;17.13;;;;;;;;;;5038952;28;20013;-68
2022/03/29 00:35:57;;;;;;;48.08;18.60;;;;;;;;;;5041356;28;20263;-68
2022/03/29 00:38:23;;;;;;;41.75;18.70;;;;;;;;;;5036493;28;20375;-69
2022/03/29 00:40:48;;;;;;;48.43;19.97;;;;;;;;;;5036950;28;20044;-68
2022/03/29 00:43:13;;;;;;;42.70;17.80;;;;;;;;;;5032369;28;20265;-69
2022/03/29 00:45:38;;;;;;;44.38;18.67;;;;;;;;;;5038619;28;20032;-68
2022/03/29 00:48:05;;;;;;;46.95;17.40;;;;;;;;;;5035683;28;20462;-68
2022/03/29 00:50:30;;;;;;;42.67;18.05;;;;;;;;;;5037217;28;20009;-68
2022/03/29 00:52:55;;;;;;;46.10;18.17;;;;;;;;;;5041821;28;20112;-68
2022/03/29 00:55:21;;;;;;;49.70;19.77;;;;;;;;;;5017533;28;20026;-68
2022/03/29 00:57:46;;;;;;;40.85;18.33;;;;;;;;;;5040420;28;20017;-68
2022/03/29 01:00:16;;;;;;;44.97;18.33;;;;;;;;;;5035502;28;20025;-69
2022/03/29 01:02:41;;;;;;;47.75;18.80;;;;;;;;;;5037406;28;20536;-68
2022/03/29 01:05:07;;;;;;;46.13;18.80;;;;;;;;;;5037032;28;20021;-68
2022/03/29 01:07:32;;;;;;;43.33;17.83;;;;;;;;;;5039593;28;20059;-68
2022/03/29 01:09:58;;;;;;;46.83;19.05;;;;;;;;;;5036039;28;20028;-69
2022/03/29 01:12:24;;;;;;;42.78;17.83;;;;;;;;;;5033568;28;20033;-68
2022/03/29 01:14:50;;;;;;;42.78;18.70;;;;;;;;;;5039201;28;20025;-68
2022/03/29 01:20:00;;;;;;;41.75;18.73;;;;;;;;;;5035825;28;20083;-68
2022/03/29 01:22:26;;;;;;;39.80;18.20;;;;;;;;;;5037638;28;20025;-68
2022/03/29 01:24:52;;;;;;;44.47;18.38;;;;;;;;;;5039176;28;20036;-68
2022/03/29 01:27:18;;;;;;;42.08;17.10;;;;;;;;;;5037256;28;20021;-68
2022/03/29 01:29:44;;;;;;;44.70;18.83;;;;;;;;;;5040178;28;20111;-68
2022/03/29 01:32:10;;;;;;;43.17;17.42;;;;;;;;;;5039484;28;20027;-68
2022/03/29 01:34:37;;;;;;;39.05;16.90;;;;;;;;;;5037655;28;20029;-68
2022/03/29 01:37:05;;;;;;;39.80;17.88;;;;;;;;;;5037318;28;20021;-68
2022/03/29 01:39:34;;;;;;;44.67;17.50;;;;;;;;;;5035535;28;20017;-68
2022/03/29 01:41:59;;;;;;;45.22;18.83;;;;;;;;;;5035667;28;20014;-68
2022/03/29 01:44:24;;;;;;;43.25;19.15;;;;;;;;;;5037857;28;20036;-68
2022/03/29 01:46:50;;;;;;;41.53;18.85;;;;;;;;;;5034611;28;20053;-68
2022/03/29 01:49:15;;;;;;;37.25;16.77;;;;;;;;;;5035557;28;20021;-68
2022/03/29 01:51:41;;;;;;;42.38;18.23;;;;;;;;;;5036500;28;20029;-66
2022/03/29 01:54:06;;;;;;;51.50;19.73;;;;;;;;;;5039032;28;20539;-66
2022/03/29 01:56:32;;;;;;;43.95;18.05;;;;;;;;;;5033983;28;20359;-66
2022/03/29 01:58:58;;;;;;;43.80;18.27;;;;;;;;;;5035710;28;20485;-68
2022/03/29 02:01:23;;;;;;;53.53;18.70;;;;;;;;;;5032602;28;20032;-66
2022/03/29 02:03:48;;;;;;;45.45;17.98;;;;;;;;;;5028897;28;20421;-66
2022/03/29 02:06:14;;;;;;;47.80;19.27;;;;;;;;;;5036094;28;20043;-66
2022/03/29 02:08:39;;;;;;;47.97;19.52;;;;;;;;;;5037411;28;20017;-66
2022/03/29 02:11:04;;;;;;;39.33;17.73;;;;;;;;;;5036418;28;20017;-66
2022/03/29 02:13:29;;;;;;;44.53;18.20;;;;;;;;;;5035913;28;20033;-66
2022/03/29 02:15:54;;;;;;;37.87;16.23;;;;;;;;;;5018050;28;20333;-66
2022/03/29 02:18:19;;;;;;;42.25;18.05;;;;;;;;;;5031846;28;20357;-66
2022/03/29 02:20:45;;;;;;;52.60;18.33;;;;;;;;;;5035298;28;20026;-66
2022/03/29 02:23:14;;;;;;;43.25;17.02;;;;;;;;;;5031329;28;20048;-66
2022/03/29 02:25:39;;;;;;;38.90;18.17;;;;;;;;;;5018354;28;20047;-66
2022/03/29 02:28:05;;;;;;;43.10;16.92;;;;;;;;;;5036931;28;20477;-66
2022/03/29 02:30:32;;;;;;;41.70;16.20;;;;;;;;;;5036040;28;20021;-66
2022/03/29 02:32:58;;;;;;;41.85;18.25;;;;;;;;;;5033698;28;20095;-66
2022/03/29 02:35:23;;;;;;;41.38;18.50;;;;;;;;;;5040918;28;20021;-69
2022/03/29 02:37:48;;;;;;;38.63;17.58;;;;;;;;;;5031998;28;20084;-66
2022/03/29 02:40:13;;;;;;;40.40;17.83;;;;;;;;;;5038580;28;20017;-66
2022/03/29 02:42:42;;;;;;;43.88;17.42;;;;;;;;;;5045078;28;20021;-66
2022/03/29 02:45:09;;;;;;;38.92;17.52;;;;;;;;;;5042489;28;20025;-66
2022/03/29 02:47:34;;;;;;;42.78;16.80;;;;;;;;;;5038324;28;20029;-66
2022/03/29 02:50:00;;;;;;;50.63;17.93;;;;;;;;;;5039606;28;20022;-66
2022/03/29 02:52:25;;;;;;;36.67;16.65;;;;;;;;;;5041594;28;20307;-66
2022/03/29 02:54:50;;;;;;;49.67;17.70;;;;;;;;;;5038362;28;20064;-66
2022/03/29 02:57:15;;;;;;;42.43;17.00;;;;;;;;;;5036974;28;20024;-69
2022/03/29 02:59:40;;;;;;;43.25;17.85;;;;;;;;;;5037895;28;20350;-66
2022/03/29 03:02:06;;;;;;;41.10;16.80;;;;;;;;;;5034527;28;20022;-66
2022/03/29 03:04:31;;;;;;;34.78;15.77;;;;;;;;;;5038440;28;20377;-66
2022/03/29 03:06:57;;;;;;;44.83;16.73;;;;;;;;;;5038907;28;20143;-66
2022/03/29 03:09:22;;;;;;;32.55;15.52;;;;;;;;;;5038437;28;20021;-66
2022/03/29 03:11:47;;;;;;;36.80;17.10;;;;;;;;;;5024124;28;20113;-66
2022/03/29 03:14:12;;;;;;;48.00;17.50;;;;;;;;;;5039320;28;20283;-66
2022/03/29 03:16:37;;;;;;;37.15;15.27;;;;;;;;;;5041214;28;20268;-66
2022/03/29 03:19:03;;;;;;;43.20;17.23;;;;;;;;;;5042275;28;20017;-68
2022/03/29 03:21:28;;;;;;;52.63;17.02;;;;;;;;;;5042924;28;20354;-66
2022/03/29 03:23:53;;;;;;;39.33;17.25;;;;;;;;;;5038826;28;20021;-66
2022/03/29 03:26:19;;;;;;;40.00;17.63;;;;;;;;;;5041273;28;20013;-66
2022/03/29 03:28:44;;;;;;;37.38;15.93;;;;;;;;;;5038691;28;20544;-67
2022/03/29 03:31:09;;;;;;;35.63;15.70;;;;;;;;;;5038216;28;20045;-66
2022/03/29 03:33:34;;;;;;;42.33;16.50;;;;;;;;;;5037772;28;20025;-66
2022/03/29 03:35:59;;;;;;;44.53;17.00;;;;;;;;;;5034881;28;20363;-67
2022/03/29 03:38:25;;;;;;;41.45;16.05;;;;;;;;;;5037328;28;20472;-67
2022/03/29 03:40:50;;;;;;;38.80;17.53;;;;;;;;;;5040624;28;20012;-67
2022/03/29 03:43:15;;;;;;;45.67;17.92;;;;;;;;;;5040825;28;20668;-67
2022/03/29 03:45:40;;;;;;;40.10;15.38;;;;;;;;;;5038945;28;20032;-67
2022/03/29 03:48:06;;;;;;;45.33;16.93;;;;;;;;;;5035761;28;20021;-67
2022/03/29 03:50:32;;;;;;;42.55;16.65;;;;;;;;;;5036815;28;20363;-67
2022/03/29 03:52:57;;;;;;;36.80;16.90;;;;;;;;;;5037779;28;20017;-67
2022/03/29 03:55:22;;;;;;;42.78;19.50;;;;;;;;;;5037978;28;20591;-67
2022/03/29 03:57:48;;;;;;;45.55;18.20;;;;;;;;;;5035209;28;20366;-67
2022/03/29 04:00:14;;;;;;;48.63;18.70;;;;;;;;;;5032525;28;20112;-67
2022/03/29 04:02:40;;;;;;;49.40;17.77;;;;;;;;;;5039312;28;20022;-67
2022/03/29 04:05:08;;;;;;;38.63;16.60;;;;;;;;;;5037203;28;20082;-67
2022/03/29 04:07:33;;;;;;;38.35;16.48;;;;;;;;;;5038507;28;20018;-68
2022/03/29 04:09:58;;;;;;;48.55;17.38;;;;;;;;;;5040764;28;20588;-68
2022/03/29 04:12:23;;;;;;;46.92;17.77;;;;;;;;;;5032598;28;20017;-67
2022/03/29 04:14:49;;;;;;;41.43;17.40;;;;;;;;;;5040343;28;20060;-68
2022/03/29 04:17:14;;;;;;;46.60;18.60;;;;;;;;;;5036125;28;20354;-68
2022/03/29 04:19:39;;;;;;;40.90;16.73;;;;;;;;;;5038243;28;20031;-67
2022/03/29 04:22:05;;;;;;;38.73;17.27;;;;;;;;;;5032487;28;20381;-67
2022/03/29 04:24:30;;;;;;;40.17;17.95;;;;;;;;;;5038240;28;20283;-67
2022/03/29 04:26:55;;;;;;;65.65;18.80;;;;;;;;;;5038005;28;20108;-68
2022/03/29 04:29:21;;;;;;;53.50;19.83;;;;;;;;;;5047814;22;20046;-70
2022/03/29 04:31:47;;;;;;;52.42;19.52;;;;;;;;;;5009952;28;20030;-70
2022/03/29 04:34:12;;;;;;;50.15;21.13;;;;;;;;;;5017098;28;20025;-70
2022/03/29 04:36:38;;;;;;;50.80;21.03;;;;;;;;;;5020794;28;20127;-69
2022/03/29 04:39:03;;;;;;;58.53;21.35;;;;;;;;;;5017470;28;20774;-69
2022/03/29 04:41:28;;;;;;;47.07;20.30;;;;;;;;;;5014290;28;20045;-69
2022/03/29 04:43:53;;;;;;;46.67;19.60;;;;;;;;;;5017741;28;20318;-69
2022/03/29 04:46:18;;;;;;;48.35;21.30;;;;;;;;;;5016798;28;20491;-69
2022/03/29 04:48:44;;;;;;;44.33;19.60;;;;;;;;;;5016031;28;20029;-69
2022/03/29 04:51:10;;;;;;;47.63;20.38;;;;;;;;;;5017712;28;20352;-71
2022/03/29 04:53:35;;;;;;;41.03;19.63;;;;;;;;;;5017410;28;20072;-69
2022/03/29 04:56:00;;;;;;;44.95;18.67;;;;;;;;;;5017156;28;20021;-69
2022/03/29 04:58:26;;;;;;;52.72;20.52;;;;;;;;;;5017519;28;20025;-69
2022/03/29 05:00:51;;;;;;;48.53;20.35;;;;;;;;;;5021859;28;20014;-69
2022/03/29 05:03:16;;;;;;;50.53;18.48;;;;;;;;;;5016893;28;20105;-70
2022/03/29 05:05:42;;;;;;;51.92;19.70;;;;;;;;;;5019645;28;20021;-69
2022/03/29 05:08:07;;;;;;;49.50;18.45;;;;;;;;;;5009311;28;20026;-69
2022/03/29 05:10:32;;;;;;;45.78;19.60;;;;;;;;;;5012721;28;20472;-70
2022/03/29 05:12:57;;;;;;;49.40;21.33;;;;;;;;;;5017682;28;20010;-69
2022/03/29 05:15:23;;;;;;;55.40;20.83;;;;;;;;;;5020034;28;20032;-69
2022/03/29 05:17:48;;;;;;;51.38;21.60;;;;;;;;;;5022539;28;20283;-69
2022/03/29 05:20:14;;;;;;;42.55;19.80;;;;;;;;;;5014826;28;20112;-69
2022/03/29 05:22:44;;;;;;;47.58;21.30;;;;;;;;;;5019594;28;20482;-70
2022/03/29 05:25:09;;;;;;;64.13;21.87;;;;;;;;;;5017166;28;20112;-69
2022/03/29 05:27:35;;;;;;;49.35;21.30;;;;;;;;;;5012507;28;20163;-70
2022/03/29 05:30:00;;;;;;;43.90;20.47;;;;;;;;;;5014991;28;20096;-69
2022/03/29 05:32:25;;;;;;;53.42;22.35;;;;;;;;;;5013083;28;20764;-70
2022/03/29 05:34:50;;;;;;;46.23;21.77;;;;;;;;;;5012968;28;20096;-69
2022/03/29 05:37:16;;;;;;;59.17;23.10;;;;;;;;;;5014977;28;20272;-69
2022/03/29 05:39:43;;;;;;;56.83;21.67;;;;;;;;;;4992571;28;20049;-70
2022/03/29 05:42:09;;;;;;;48.67;22.05;;;;;;;;;;5006983;28;20017;-68
2022/03/29 05:44:35;;;;;;;51.60;21.88;;;;;;;;;;4993814;28;20022;-70
2022/03/29 05:49:44;;;;;;;57.97;22.73;;;;;;;;;;5015358;28;20087;-69
2022/03/29 05:52:09;;;;;;;51.58;20.85;;;;;;;;;;5014048;28;20022;-69
2022/03/29 05:54:35;;;;;;;52.10;21.02;;;;;;;;;;5011295;28;20022;-69
2022/03/29 05:57:00;;;;;;;46.40;21.13;;;;;;;;;;5010130;28;20018;-70
2022/03/29 05:59:26;;;;;;;48.55;20.70;;;;;;;;;;5005331;28;20022;-69
2022/03/29 06:01:51;;;;;;;47.20;21.02;;;;;;;;;;5011312;28;20073;-69
2022/03/29 06:04:17;;;;;;;54.50;22.23;;;;;;;;;;5010696;28;20367;-69
2022/03/29 06:06:44;;;;;;;48.63;21.77;;;;;;;;;;5013188;28;20017;-69
2022/03/29 06:09:10;;;;;;;52.78;22.42;;;;;;;;;;5010305;28;20014;-69
2022/03/29 06:11:35;;;;;;;55.00;21.92;;;;;;;;;;5023130;28;20096;-70
2022/03/29 06:14:02;;;;;;;47.78;21.20;;;;;;;;;;5025613;28;20040;-69
2022/03/29 06:16:27;;;;;;;45.60;20.83;;;;;;;;;;5002332;28;20029;-69
2022/03/29 06:18:52;;;;;;;65.68;24.70;;;;;;;;;;5024235;28;20025;-69
2022/03/29 06:21:18;;;;;;;50.53;21.20;;;;;;;;;;5018019;28;20080;-69
2022/03/29 06:23:44;;;;;;;47.53;22.15;;;;;;;;;;4999222;28;20281;-69
2022/03/29 06:26:09;;;;;;;51.27;22.60;;;;;;;;;;5016985;28;20033;-70
2022/03/29 06:28:34;;;;;;;53.38;23.50;;;;;;;;;;5020510;28;20308;-68
2022/03/29 06:30:59;;;;;;;56.80;23.55;;;;;;;;;;5014994;28;20080;-69
2022/03/29 06:33:26;;;;;;;47.53;21.57;;;;;;;;;;5017937;28;20025;-69
2022/03/29 06:35:52;;;;;;;52.38;21.50;;;;;;;;;;5018166;28;20276;-70
2022/03/29 06:38:21;;;;;;;51.15;21.50;;;;;;;;;;4999833;28;20673;-69
2022/03/29 06:40:47;;;;;;;58.78;21.63;;;;;;;;;;5018238;28;20029;-69
2022/03/29 06:43:12;;;;;;;51.85;22.27;;;;;;;;;;5027171;28;20444;-68
2022/03/29 06:45:37;;;;;;;45.47;20.90;;;;;;;;;;5012289;28;20022;-69
2022/03/29 06:48:03;;;;;;;50.22;20.83;;;;;;;;;;5026043;28;20017;-68
2022/03/29 06:50:28;;;;;;;53.15;21.80;;;;;;;;;;5025174;28;20013;-69
2022/03/29 06:52:54;;;;;;;53.03;23.30;;;;;;;;;;5018992;28;20022;-70
2022/03/29 06:55:21;;;;;;;48.45;20.50;;;;;;;;;;5022386;28;20025;-68
2022/03/29 06:57:46;;;;;;;50.42;21.65;;;;;;;;;;5018787;28;20022;-69
2022/03/29 07:00:12;;;;;;;55.88;21.27;;;;;;;;;;5013473;28;20149;-69
2022/03/29 07:02:37;;;;;;;50.63;21.50;;;;;;;;;;5020325;28;20026;-69
2022/03/29 07:05:03;;;;;;;52.47;22.20;;;;;;;;;;5019717;28;20018;-69
2022/03/29 07:07:28;;;;;;;50.55;21.63;;;;;;;;;;5026726;28;20028;-69
2022/03/29 07:12:50;;;;;;;47.35;21.20;;;;;;;;;;5015609;28;20063;-69
2022/03/29 07:15:16;;;;;;;52.92;24.05;;;;;;;;;;5018695;28;20418;-68
2022/03/29 07:17:41;;;;;;;44.55;21.52;;;;;;;;;;5021642;28;20030;-69
2022/03/29 07:20:07;;;;;;;45.80;21.63;;;;;;;;;;5022064;28;20417;-70
2022/03/29 07:22:32;;;;;;;39.95;20.33;;;;;;;;;;5018014;28;20030;-67
2022/03/29 07:24:57;;;;;;;46.37;22.90;;;;;;;;;;5019111;28;20034;-67
2022/03/29 07:27:22;;;;;;;43.60;20.43;;;;;;;;;;5012579;28;20269;-67
2022/03/29 07:29:49;;;;;;;46.77;20.43;;;;;;;;;;5009382;28;20301;-67
2022/03/29 07:32:15;;;;;;;50.22;22.63;;;;;;;;;;5019889;28;20767;-67
2022/03/29 07:34:40;;;;;;;52.45;20.92;;;;;;;;;;5012506;28;20100;-67
2022/03/29 07:37:06;;;;;;;44.85;20.38;;;;;;;;;;5004161;28;20036;-67
2022/03/29 07:39:31;;;;;;;41.63;19.83;;;;;;;;;;5011599;28;20325;-67
2022/03/29 07:41:56;;;;;;;47.35;20.55;;;;;;;;;;5012195;28;20168;-67
2022/03/29 07:44:22;;;;;;;43.03;21.30;;;;;;;;;;5012597;28;20025;-68
2022/03/29 07:46:47;;;;;;;45.35;21.58;;;;;;;;;;4994809;28;20028;-67
2022/03/29 07:49:12;;;;;;;43.33;20.40;;;;;;;;;;5011749;28;20441;-68
2022/03/29 07:51:38;;;;;;;37.28;18.67;;;;;;;;;;5010427;28;20010;-68
2022/03/29 07:54:03;;;;;;;42.90;18.65;;;;;;;;;;4994144;28;20053;-68
2022/03/29 07:56:29;;;;;;;35.15;18.75;;;;;;;;;;5011218;28;20025;-68
2022/03/29 07:58:56;;;;;;;37.35;18.10;;;;;;;;;;5023777;28;20033;-68
2022/03/29 08:01:21;;;;;;;40.00;18.23;;;;;;;;;;4993515;28;20060;-68
2022/03/29 08:03:46;;;;;;;38.10;17.40;;;;;;;;;;5012132;28;20029;-68
2022/03/29 08:06:12;;;;;;;36.13;17.50;;;;;;;;;;5012247;28;20077;-68
2022/03/29 08:08:37;;;;;;;41.60;18.73;;;;;;;;;;5012299;28;20261;-68
2022/03/29 08:11:04;;;;;;;45.55;19.40;;;;;;;;;;5011415;28;20021;-68
2022/03/29 08:13:29;;;;;;;42.33;17.60;;;;;;;;;;5011626;28;20021;-68
2022/03/29 08:15:56;;;;;;;41.03;18.95;;;;;;;;;;5011859;28;20026;-68
2022/03/29 08:18:21;;;;;;;42.22;19.42;;;;;;;;;;5011846;28;20393;-68
2022/03/29 08:20:47;;;;;;;35.90;16.90;;;;;;;;;;5009571;28;20022;-68
2022/03/29 08:23:12;;;;;;;43.92;19.73;;;;;;;;;;5010898;28;20363;-68
2022/03/29 08:25:38;;;;;;;42.70;15.70;;;;;;;;;;5010772;28;20027;-68
2022/03/29 08:28:04;;;;;;;34.80;14.02;;;;;;;;;;5012092;28;20020;-69
2022/03/29 08:30:30;;;;;;;44.90;17.50;;;;;;;;;;5009762;28;20018;-69
2022/03/29 08:32:57;;;;;;;36.28;18.40;;;;;;;;;;5011864;28;20076;-68
2022/03/29 08:35:22;;;;;;;34.60;17.95;;;;;;;;;;5011508;28;20017;-69
2022/03/29 08:37:47;;;;;;;33.60;16.88;;;;;;;;;;5010633;28;20530;-70
2022/03/29 08:40:14;;;;;;;29.58;16.60;;;;;;;;;;5010715;28;20100;-68
2022/03/29 08:42:42;;;;;;;36.58;17.55;;;;;;;;;;5011955;28;20061;-68
2022/03/29 08:45:08;;;;;;;40.97;16.95;;;;;;;;;;5011088;28;20029;-69
2022/03/29 08:47:33;;;;;;;36.72;17.15;;;;;;;;;;5008994;28;20034;-68
2022/03/29 08:50:01;;;;;;;31.13;15.93;;;;;;;;;;5011262;28;20094;-68
2022/03/29 08:52:27;;;;;;;37.22;16.70;;;;;;;;;;5010880;28;20022;-69
2022/03/29 08:54:52;;;;;;;34.38;16.42;;;;;;;;;;5011789;28;20394;-68
2022/03/29 08:57:18;;;;;;;27.10;15.40;;;;;;;;;;5010085;28;20028;-69
2022/03/29 08:59:43;;;;;;;33.00;16.27;;;;;;;;;;5011000;28;20109;-68
2022/03/29 09:02:12;;;;;;;33.53;17.15;;;;;;;;;;5011311;28;20050;-70
2022/03/29 09:04:37;;;;;;;29.40;15.38;;;;;;;;;;5010200;28;20030;-67
2022/03/29 09:07:03;;;;;;;31.00;16.67;;;;;;;;;;5011502;28;20385;-68
2022/03/29 09:09:34;;;;;;;39.20;16.85;;;;;;;;;;5010907;28;20026;-68
2022/03/29 09:12:08;;;;;;;38.83;16.52;;;;;;;;;;5011258;28;20018;-68
2022/03/29 09:14:48;;;;;;;29.35;16.30;;;;;;;;;;5011134;28;20025;-68
2022/03/29 09:17:32;;;;;;;34.67;15.55;;;;;;;;;;5010605;28;20032;-68
2022/03/29 09:20:07;;;;;;;38.47;14.18;;;;;;;;;;4993508;28;20034;-71
2022/03/29 09:22:36;;;;;;;32.40;14.27;;;;;;;;;;5011149;28;20093;-68
2022/03/29 09:25:01;;;;;;;27.27;13.43;;;;;;;;;;5018052;28;20025;-68
2022/03/29 09:27:26;;;;;;;23.20;11.70;;;;;;;;;;5011413;28;20026;-68
2022/03/29 09:30:05;;;;;;;24.67;12.65;;;;;;;;;;5014057;28;20030;-68
2022/03/29 09:32:30;;;;;;;30.60;13.30;;;;;;;;;;5010683;28;20058;-68
2022/03/29 09:35:05;;;;;;;20.92;12.32;;;;;;;;;;5012548;28;20048;-68
2022/03/29 09:37:34;;;;;;;22.73;10.63;;;;;;;;;;5014444;28;20029;-68
2022/03/29 09:40:00;;;;;;;21.90;12.35;;;;;;;;;;5002105;28;20501;-68
2022/03/29 09:42:27;;;;;;;21.00;11.40;;;;;;;;;;5010202;28;20034;-68
2022/03/29 09:44:57;;;;;;;21.38;9.48;;;;;;;;;;5010479;28;20108;-69
2022/03/29 09:47:22;;;;;;;20.52;10.48;;;;;;;;;;5010302;28;20048;-69
2022/03/29 09:49:52;;;;;;;19.45;9.73;;;;;;;;;;5009715;28;20065;-68
2022/03/29 09:52:18;;;;;;;18.67;10.15;;;;;;;;;;5009965;28;20029;-68
2022/03/29 09:55:03;;;;;;;24.73;11.32;;;;;;;;;;4998874;28;20030;-67
2022/03/29 09:57:35;;;;;;;20.23;11.05;;;;;;;;;;5014909;28;20185;-67
2022/03/29 10:00:00;;;;;;;19.65;11.13;;;;;;;;;;5021799;28;20028;-68
2022/03/29 10:02:36;;;;;;;22.27;11.45;;;;;;;;;;5014142;28;20097;-67
2022/03/29 10:05:02;;;;;;;20.67;11.95;;;;;;;;;;5021443;28;20040;-67
2022/03/29 10:07:29;;;;;;;21.92;11.35;;;;;;;;;;4991558;28;20486;-67
2022/03/29 10:09:54;;;;;;;22.60;11.02;;;;;;;;;;5011634;28;20013;-67
2022/03/29 10:12:22;;;;;;;21.27;10.27;;;;;;;;;;5004265;28;20100;-67
2022/03/29 10:14:49;;;;;;;24.45;11.00;;;;;;;;;;4994488;28;20371;-67
2022/03/29 10:17:15;;;;;;;18.50;10.80;;;;;;;;;;5014538;28;20022;-68
2022/03/29 10:19:44;;;;;;;25.25;11.30;;;;;;;;;;4995533;28;20049;-67
2022/03/29 10:22:09;;;;;;;18.27;11.02;;;;;;;;;;5013937;28;20120;-67
2022/03/29 10:24:35;;;;;;;21.10;10.43;;;;;;;;;;5013596;28;20484;-67
2022/03/29 10:27:01;;;;;;;19.15;10.30;;;;;;;;;;5014978;28;20018;-67
2022/03/29 10:29:27;;;;;;;22.27;11.10;;;;;;;;;;5014072;28;20052;-67
2022/03/29 10:31:52;;;;;;;22.02;11.48;;;;;;;;;;5018404;28;20115;-66
2022/03/29 10:34:19;;;;;;;26.37;12.90;;;;;;;;;;4997345;28;20490;-67
2022/03/29 10:37:22;;;;;;;17.67;10.13;;;;;;;;;;5016251;28;20273;-67
2022/03/29 10:39:57;;;;;;;24.75;10.73;;;;;;;;;;4917933;29;20035;-66
2022/03/29 10:42:23;;;;;;;17.38;10.18;;;;;;;;;;4910773;29;20056;-67
2022/03/29 10:44:58;;;;;;;18.10;10.20;;;;;;;;;;4966226;28;20072;-67
2022/03/29 10:47:27;;;;;;;18.90;9.75;;;;;;;;;;5013682;28;20665;-67
2022/03/29 10:49:52;;;;;;;19.07;9.20;;;;;;;;;;5016344;28;20013;-67
2022/03/29 10:52:20;;;;;;;21.20;10.03;;;;;;;;;;5017575;28;20422;-67
2022/03/29 10:54:46;;;;;;;22.13;9.15;;;;;;;;;;5014911;28;20279;-67
2022/03/29 10:57:31;;;;;;;18.08;10.30;;;;;;;;;;5018411;28;20026;-66
2022/03/29 11:00:12;;;;;;;16.55;9.30;;;;;;;;;;5015342;28;20116;-67
2022/03/29 11:02:38;;;;;;;19.17;8.60;;;;;;;;;;5017489;28;20025;-66
2022/03/29 11:05:07;;;;;;;15.93;7.90;;;;;;;;;;5019007;28;20041;-66
2022/03/29 11:07:38;;;;;;;15.57;9.27;;;;;;;;;;5019926;28;20042;-67
2022/03/29 11:10:14;;;;;;;18.52;8.15;;;;;;;;;;5019339;28;20017;-66
2022/03/29 11:12:44;;;;;;;14.93;7.85;;;;;;;;;;5020192;28;20024;-66
2022/03/29 11:15:25;;;;;;;15.75;8.80;;;;;;;;;;5014816;28;20655;-66
2022/03/29 11:17:54;;;;;;;14.18;8.13;;;;;;;;;;5018779;28;20025;-67
2022/03/29 11:20:33;;;;;;;19.83;9.95;;;;;;;;;;5020314;28;20034;-67
2022/03/29 11:23:00;;;;;;;13.98;7.88;;;;;;;;;;5016040;28;20026;-67
2022/03/29 11:25:25;;;;;;;14.52;8.25;;;;;;;;;;5016429;28;20030;-67
2022/03/29 11:27:50;;;;;;;16.42;7.30;;;;;;;;;;5013364;28;20084;-68
2022/03/29 11:30:16;;;;;;;12.40;5.70;;;;;;;;;;5019855;28;20026;-67
2022/03/29 11:32:42;;;;;;;12.85;6.38;;;;;;;;;;5015959;28;20293;-67
2022/03/29 11:35:08;;;;;;;9.82;5.40;;;;;;;;;;5017385;28;20105;-67
2022/03/29 11:37:37;;;;;;;5.85;3.08;;;;;;;;;;5020141;28;20481;-67
2022/03/29 11:40:03;;;;;;;17.73;5.88;;;;;;;;;;5020530;28;20049;-66
2022/03/29 11:42:41;;;;;;;11.02;6.22;;;;;;;;;;5018569;28;20519;-66
2022/03/29 11:45:07;;;;;;;16.25;6.47;;;;;;;;;;5021471;28;20038;-67
2022/03/29 11:47:32;;;;;;;12.82;8.18;;;;;;;;;;5022454;28;20025;-66
2022/03/29 11:49:57;;;;;;;12.43;8.23;;;;;;;;;;5019190;28;20108;-67
2022/03/29 11:52:31;;;;;;;18.47;8.93;;;;;;;;;;5020033;28;20680;-66
2022/03/29 11:54:56;;;;;;;16.80;7.97;;;;;;;;;;5013640;28;20280;-67
2022/03/29 11:57:25;;;;;;;16.13;8.02;;;;;;;;;;5020245;28;20018;-67
2022/03/29 11:59:51;;;;;;;17.40;8.30;;;;;;;;;;5018193;28;20025;-67
2022/03/29 12:02:18;;;;;;;15.40;8.48;;;;;;;;;;5017737;28;20025;-68
2022/03/29 12:04:43;;;;;;;15.00;8.02;;;;;;;;;;5018706;28;20486;-66
2022/03/29 12:07:09;;;;;;;20.17;8.10;;;;;;;;;;5014069;28;20025;-67
2022/03/29 12:09:34;;;;;;;12.00;6.53;;;;;;;;;;5012766;28;20026;-67
2022/03/29 12:12:01;;;;;;;10.00;5.90;;;;;;;;;;5013719;28;20269;-67
2022/03/29 12:14:27;;;;;;;19.75;5.03;;;;;;;;;;5008891;28;20029;-67
2022/03/29 12:17:07;;;;;;;9.98;5.25;;;;;;;;;;5016453;28;20445;-67
2022/03/29 12:19:33;;;;;;;;;;;;;;;;;;5020649;28;20022;-67
2022/03/29 12:22:00;;;;;;;9.93;5.10;;;;;;;;;;5020332;28;19906;-67
2022/03/29 12:24:36;;;;;;;17.17;5.43;;;;;;;;;;5020738;28;20111;-66
2022/03/29 12:27:06;;;;;;;12.85;5.32;;;;;;;;;;5016930;28;20018;-67
2022/03/29 12:29:33;;;;;;;11.57;5.72;;;;;;;;;;5016342;28;20044;-67
2022/03/29 12:32:00;;;;;;;8.23;5.10;;;;;;;;;;5016488;28;20026;-67
2022/03/29 12:34:26;;;;;;;10.50;5.28;;;;;;;;;;5016504;28;20021;-68
2022/03/29 12:37:02;;;;;;;12.05;5.70;;;;;;;;;;5021642;28;20068;-67
2022/03/29 12:39:31;;;;;;;12.02;5.70;;;;;;;;;;5015477;28;20585;-68
2022/03/29 12:41:56;;;;;;;14.38;6.50;;;;;;;;;;5020228;28;20022;-66
2022/03/29 12:44:34;;;;;;;18.70;6.73;;;;;;;;;;5018166;28;20053;-69
2022/03/29 12:46:59;;;;;;;11.70;5.78;;;;;;;;;;5013277;28;20271;-68
2022/03/29 12:49:25;;;;;;;20.08;8.50;;;;;;;;;;5017990;28;20018;-67
2022/03/29 12:52:00;;;;;;;38.22;15.82;;;;;;;;;;5019088;28;20032;-68
2022/03/29 12:54:32;;;;;;;63.53;31.20;;;;;;;;;;5013957;28;20025;-68
2022/03/29 12:56:58;;;;;;;68.78;33.78;;;;;;;;;;5016066;28;20108;-67
2022/03/29 12:59:26;;;;;;;66.60;31.80;;;;;;;;;;5013846;28;20108;-67
2022/03/29 13:01:52;;;;;;;55.38;31.05;;;;;;;;;;5015856;28;20025;-68
2022/03/29 13:04:17;;;;;;;57.33;30.25;;;;;;;;;;5016185;28;20124;-67
2022/03/29 13:06:43;;;;;;;57.97;29.35;;;;;;;;;;4993269;28;20025;-67
2022/03/29 13:09:13;;;;;;;61.65;29.15;;;;;;;;;;5010448;28;20013;-68
2022/03/29 13:11:38;;;;;;;48.15;26.63;;;;;;;;;;5010563;28;20014;-68
2022/03/29 13:14:04;;;;;;;58.22;28.27;;;;;;;;;;5010765;28;20014;-67
2022/03/29 13:16:29;;;;;;;60.80;29.48;;;;;;;;;;5009772;28;20068;-67
2022/03/29 13:18:55;;;;;;;52.47;30.60;;;;;;;;;;5010752;28;20390;-67
2022/03/29 13:21:24;;;;;;;55.60;30.35;;;;;;;;;;5010227;28;20360;-67
2022/03/29 13:23:51;;;;;;;57.90;28.93;;;;;;;;;;5009896;28;20474;-68
2022/03/29 13:26:17;;;;;;;56.97;27.08;;;;;;;;;;5009704;28;20280;-67
2022/03/29 13:28:43;;;;;;;53.22;27.15;;;;;;;;;;5012778;28;20030;-67
2022/03/29 13:31:10;;;;;;;59.03;28.67;;;;;;;;;;5012895;28;20406;-67
2022/03/29 13:33:36;;;;;;;52.22;27.88;;;;;;;;;;5016531;28;20025;-68
2022/03/29 13:36:05;;;;;;;53.13;29.52;;;;;;;;;;5016540;28;20102;-67
2022/03/29 13:38:31;;;;;;;52.93;29.37;;;;;;;;;;4996295;28;20075;-67
2022/03/29 13:40:56;;;;;;;53.13;28.48;;;;;;;;;;5015183;28;20267;-67
2022/03/29 13:43:21;;;;;;;58.78;26.77;;;;;;;;;;5016883;28;20439;-68
2022/03/29 13:45:47;;;;;;;52.20;26.90;;;;;;;;;;5014349;28;20049;-68
2022/03/29 13:48:12;;;;;;;46.00;26.80;;;;;;;;;;5020491;28;20018;-67
2022/03/29 13:50:38;;;;;;;51.80;26.38;;;;;;;;;;5008483;28;20026;-67
2022/03/29 13:53:04;;;;;;;43.90;25.95;;;;;;;;;;5009713;28;20021;-67
2022/03/29 13:55:33;;;;;;;57.60;28.20;;;;;;;;;;5016383;28;20634;-66
2022/03/29 13:57:58;;;;;;;54.42;31.90;;;;;;;;;;4999791;28;20056;-66
2022/03/29 14:00:23;;;;;;;54.20;27.98;;;;;;;;;;5014908;28;20061;-67
2022/03/29 14:02:49;;;;;;;58.22;28.52;;;;;;;;;;5010513;28;20060;-67
2022/03/29 14:05:14;;;;;;;56.33;30.47;;;;;;;;;;5008685;28;20026;-68
2022/03/29 14:07:39;;;;;;;55.33;28.20;;;;;;;;;;5007806;28;20427;-67
2022/03/29 14:10:04;;;;;;;53.40;27.93;;;;;;;;;;5009211;28;20399;-69
2022/03/29 14:12:30;;;;;;;72.72;30.55;;;;;;;;;;5008286;28;20269;-68
2022/03/29 14:14:55;;;;;;;56.25;29.20;;;;;;;;;;5009271;28;20033;-68
2022/03/29 14:17:20;;;;;;;58.57;31.37;;;;;;;;;;5018356;28;20025;-68
2022/03/29 14:19:50;;;;;;;50.95;27.75;;;;;;;;;;5016901;28;20359;-68
2022/03/29 14:22:15;;;;;;;52.70;29.63;;;;;;;;;;5010323;28;20025;-68
2022/03/29 14:24:40;;;;;;;52.88;27.45;;;;;;;;;;5019338;28;20277;-68